Time;durP1;ratioP1;P1;durP2;ratioP2;P2;SDS_P1;SDS_P2;PMS_P1;PMS_P2;Temp;Humidity;BMP_temperature;BMP_pressure;BME280_temperature;BME280_humidity;BME280_pressure;Samples;Min_cycle;Max_cycle;Signal;HPM_P1;HPM_P2
2021/09/09 00:00:59;;;;;;;12.00;6.85;;;;;;;18.59;63.32;99640.63;5074616;28;20036;-71
2021/09/09 00:03:27;;;;;;;12.32;6.70;;;;;;;18.61;63.00;99629.66;5075669;28;20056;-71
2021/09/09 00:05:53;;;;;;;11.25;5.95;;;;;;;18.67;63.28;99634.38;5075733;28;20060;-71
2021/09/09 00:08:21;;;;;;;9.82;6.68;;;;;;;18.65;64.20;99634.56;5075568;28;20047;-71
2021/09/09 00:10:48;;;;;;;11.63;6.60;;;;;;;18.63;63.50;99630.31;5075724;28;20044;-71
2021/09/09 00:13:16;;;;;;;10.13;6.03;;;;;;;18.69;62.13;99627.00;5074476;28;20352;-71
2021/09/09 00:15:44;;;;;;;7.47;6.20;;;;;;;18.72;62.77;99634.78;5075372;28;20037;-71
2021/09/09 00:18:13;;;;;;;10.73;6.47;;;;;;;18.73;61.83;99625.66;5075436;28;20044;-71
2021/09/09 00:20:40;;;;;;;8.02;5.70;;;;;;;18.73;62.80;99621.09;5074221;28;20139;-71
2021/09/09 00:23:08;;;;;;;12.52;6.47;;;;;;;18.76;63.66;99619.06;5075382;28;20041;-71
2021/09/09 00:25:36;;;;;;;10.10;6.20;;;;;;;18.66;63.86;99608.38;5075234;28;20052;-71
2021/09/09 00:28:03;;;;;;;13.65;6.35;;;;;;;18.71;62.57;99614.16;5075248;28;20036;-72
2021/09/09 00:30:30;;;;;;;12.18;5.78;;;;;;;18.69;63.70;99602.66;5075112;28;20037;-72
2021/09/09 00:33:01;;;;;;;10.68;6.53;;;;;;;18.58;64.50;99593.81;5075094;28;20445;-71
2021/09/09 00:35:30;;;;;;;7.00;5.18;;;;;;;18.66;63.24;99608.38;5075256;28;20036;-72
2021/09/09 00:37:56;;;;;;;9.13;5.97;;;;;;;18.63;64.11;99597.91;5075854;28;20040;-72
2021/09/09 00:40:23;;;;;;;8.30;6.05;;;;;;;18.57;65.17;99597.53;5075296;28;20348;-71
2021/09/09 00:42:50;;;;;;;10.10;6.05;;;;;;;18.48;66.88;99594.94;5075173;28;20037;-71
2021/09/09 00:45:17;;;;;;;10.50;6.25;;;;;;;18.40;66.08;99591.16;5073789;28;20440;-71
2021/09/09 00:47:43;;;;;;;12.13;6.70;;;;;;;18.34;67.27;99589.09;5074959;28;20044;-71
2021/09/09 00:50:11;;;;;;;8.70;5.80;;;;;;;18.21;67.39;99569.75;5074316;28;20048;-71
2021/09/09 00:52:43;;;;;;;9.45;6.32;;;;;;;18.17;68.44;99577.34;5074752;28;20040;-71
2021/09/09 00:55:10;;;;;;;14.93;5.97;;;;;;;18.05;69.57;99565.94;5074923;28;20421;-71
2021/09/09 00:57:37;;;;;;;11.07;6.10;;;;;;;18.01;69.79;99578.88;5074736;28;20041;-71
2021/09/09 01:00:05;;;;;;;8.77;5.82;;;;;;;17.95;69.99;99573.25;5074866;28;20135;-72
2021/09/09 01:02:32;;;;;;;10.02;6.32;;;;;;;17.87;70.44;99582.16;5074657;28;20059;-72
2021/09/09 01:05:00;;;;;;;13.15;6.38;;;;;;;17.77;71.14;99577.66;5073767;28;20094;-71
2021/09/09 01:07:26;;;;;;;9.00;6.80;;;;;;;17.73;71.82;99579.00;5074735;28;20040;-71
2021/09/09 01:09:56;;;;;;;10.88;7.25;;;;;;;17.62;72.46;99563.88;5074667;28;20048;-71
2021/09/09 01:12:23;;;;;;;11.40;6.28;;;;;;;17.60;73.02;99582.06;5074651;28;20051;-71
2021/09/09 01:14:50;;;;;;;10.60;6.25;;;;;;;17.46;74.13;99572.66;5074582;28;20432;-70
2021/09/09 01:17:17;;;;;;;11.48;7.25;;;;;;;17.34;74.73;99565.78;5074579;28;20041;-71
2021/09/09 01:19:43;;;;;;;8.75;7.00;;;;;;;17.35;74.54;99572.88;5073678;28;20071;-70
2021/09/09 01:22:10;;;;;;;9.98;7.38;;;;;;;17.35;74.36;99571.03;5074622;28;20041;-71
2021/09/09 01:24:39;;;;;;;14.38;7.53;;;;;;;17.23;75.34;99554.19;5073439;28;20117;-71
2021/09/09 01:27:08;;;;;;;9.93;7.13;;;;;;;17.20;75.88;99553.66;5074651;28;20069;-70
2021/09/09 01:29:37;;;;;;;19.65;7.47;;;;;;;17.17;76.41;99565.59;5074650;28;20047;-71
2021/09/09 01:32:06;;;;;;;12.07;7.60;;;;;;;17.06;76.73;99552.34;5074473;28;20045;-71
2021/09/09 01:34:34;;;;;;;11.98;7.45;;;;;;;17.08;77.25;99555.72;5074470;28;20080;-71
2021/09/09 01:37:01;;;;;;;12.10;8.30;;;;;;;17.01;77.91;99549.22;5074421;28;20044;-71
2021/09/09 01:39:28;;;;;;;8.70;6.68;;;;;;;17.03;77.21;99558.00;5074421;28;20059;-71
2021/09/09 01:41:57;;;;;;;12.38;7.63;;;;;;;16.96;77.30;99552.38;5073239;28;20118;-71
2021/09/09 01:44:26;;;;;;;10.13;7.00;;;;;;;16.91;77.72;99560.91;5074488;28;20498;-70
2021/09/09 01:46:53;;;;;;;12.07;7.28;;;;;;;16.91;77.96;99552.81;5073398;28;20049;-70
2021/09/09 01:49:22;;;;;;;8.90;7.07;;;;;;;16.87;77.64;99554.09;5073310;28;20076;-71
2021/09/09 01:51:49;;;;;;;10.40;7.38;;;;;;;16.83;77.73;99553.56;5072766;28;20102;-73
2021/09/09 01:54:16;;;;;;;8.80;6.63;;;;;;;16.83;77.99;99558.09;5074434;28;20037;-72
2021/09/09 01:56:43;;;;;;;12.43;7.78;;;;;;;16.76;77.98;99557.00;5072855;28;20437;-71
2021/09/09 01:59:10;;;;;;;11.45;7.95;;;;;;;16.63;78.50;99544.72;5074379;28;20040;-72
2021/09/09 02:01:38;;;;;;;12.57;7.45;;;;;;;16.73;78.31;99554.59;5056913;28;20045;-70
2021/09/09 02:04:05;;;;;;;11.68;7.72;;;;;;;16.67;78.74;99551.50;5078136;28;20063;-70
2021/09/09 02:06:33;;;;;;;9.77;7.22;;;;;;;16.68;79.16;99550.50;5077959;28;20044;-72
2021/09/09 02:09:01;;;;;;;12.45;7.78;;;;;;;16.64;79.62;99553.63;5076960;28;20059;-72
2021/09/09 02:11:28;;;;;;;11.93;7.18;;;;;;;16.62;79.09;99551.09;5076743;28;20048;-72
2021/09/09 02:13:56;;;;;;;12.02;7.97;;;;;;;16.62;79.83;99556.47;5076615;28;20326;-72
2021/09/09 02:16:23;;;;;;;12.27;7.72;;;;;;;16.46;79.55;99534.72;5076627;28;20041;-72
2021/09/09 02:18:50;;;;;;;12.40;7.10;;;;;;;16.56;79.66;99544.47;5077682;28;20098;-72
2021/09/09 02:21:17;;;;;;;12.85;7.60;;;;;;;16.54;79.26;99545.59;5076565;28;20429;-71
2021/09/09 02:23:44;;;;;;;10.68;7.65;;;;;;;16.58;79.49;99549.72;5077667;28;20045;-70
2021/09/09 02:26:11;;;;;;;16.27;7.85;;;;;;;16.59;79.08;99546.00;5076538;28;20041;-71
2021/09/09 02:28:37;;;;;;;9.77;6.97;;;;;;;16.53;78.84;99554.69;5059923;28;20127;-71
2021/09/09 02:31:04;;;;;;;10.60;7.07;;;;;;;16.57;79.38;99553.41;5077537;28;20369;-71
2021/09/09 02:33:31;;;;;;;9.77;7.90;;;;;;;16.48;79.60;99538.97;5076432;28;20336;-70
2021/09/09 02:35:58;;;;;;;10.32;7.47;;;;;;;16.53;79.60;99546.59;5077381;28;20318;-71
2021/09/09 02:38:25;;;;;;;12.82;7.88;;;;;;;16.45;79.62;99547.31;5077492;28;20064;-71
2021/09/09 02:40:52;;;;;;;10.25;7.07;;;;;;;16.47;80.28;99552.56;5077319;28;20453;-70
2021/09/09 02:43:18;;;;;;;14.20;7.88;;;;;;;16.49;79.61;99545.19;5077449;28;20367;-71
2021/09/09 02:45:45;;;;;;;10.10;7.18;;;;;;;16.51;79.88;99545.91;5077302;28;20048;-71
2021/09/09 02:48:12;;;;;;;10.02;7.20;;;;;;;16.50;79.24;99536.13;5077180;28;20040;-71
2021/09/09 02:50:39;;;;;;;11.52;7.18;;;;;;;16.49;78.46;99534.41;5075687;28;20068;-70
2021/09/09 02:53:06;;;;;;;9.13;7.38;;;;;;;16.51;79.02;99535.97;5076089;28;20490;-71
2021/09/09 02:55:33;;;;;;;9.85;7.63;;;;;;;16.53;78.74;99538.53;5077066;28;20047;-72
2021/09/09 02:57:59;;;;;;;10.73;6.97;;;;;;;16.50;78.58;99538.81;5077085;28;20045;-71
2021/09/09 03:00:26;;;;;;;13.73;6.97;;;;;;;16.43;78.83;99531.34;5077051;28;20059;-71
2021/09/09 03:02:53;;;;;;;9.80;6.65;;;;;;;16.42;79.26;99524.25;5076042;28;20056;-71
2021/09/09 03:05:20;;;;;;;9.63;7.07;;;;;;;16.46;79.13;99537.41;5077018;28;20429;-71
2021/09/09 03:07:47;;;;;;;12.32;6.82;;;;;;;16.42;79.09;99528.78;5076936;28;20131;-71
2021/09/09 03:10:14;;;;;;;10.35;7.03;;;;;;;16.45;79.27;99538.41;5075732;28;20072;-71
2021/09/09 03:12:41;;;;;;;9.82;6.40;;;;;;;16.45;79.42;99535.72;5075706;28;20052;-71
2021/09/09 03:15:08;;;;;;;8.25;6.70;;;;;;;16.45;78.88;99538.41;5074862;28;20045;-71
2021/09/09 03:17:35;;;;;;;10.75;6.68;;;;;;;16.43;79.79;99536.72;5076657;28;20506;-71
2021/09/09 03:20:03;;;;;;;9.52;6.63;;;;;;;16.34;79.77;99526.81;5075611;28;20040;-71
2021/09/09 03:22:30;;;;;;;9.80;7.03;;;;;;;16.36;79.74;99523.97;5076614;28;20048;-71
2021/09/09 03:24:57;;;;;;;10.13;7.10;;;;;;;16.37;80.17;99531.06;5059004;28;20388;-71
2021/09/09 03:27:24;;;;;;;8.52;6.90;;;;;;;16.34;80.13;99520.59;5075357;28;20040;-71
2021/09/09 03:29:52;;;;;;;9.15;6.43;;;;;;;16.35;80.58;99522.28;5075225;28;20078;-70
2021/09/09 03:32:19;;;;;;;10.80;7.25;;;;;;;16.23;81.08;99505.47;5075392;28;20098;-71
2021/09/09 03:34:46;;;;;;;11.75;6.97;;;;;;;16.27;81.11;99523.00;5075253;28;20360;-72
2021/09/09 03:37:12;;;;;;;8.88;6.82;;;;;;;16.31;81.02;99521.72;5076372;28;20420;-71
2021/09/09 03:39:39;;;;;;;10.13;6.90;;;;;;;16.28;81.00;99519.31;5076310;28;20329;-70
2021/09/09 03:42:06;;;;;;;12.50;7.18;;;;;;;16.29;81.66;99529.13;5075163;28;20048;-70
2021/09/09 03:44:33;;;;;;;10.57;6.53;;;;;;;16.12;81.38;99493.88;5076063;28;20044;-71
2021/09/09 03:47:00;;;;;;;9.95;6.60;;;;;;;16.32;81.56;99527.94;5076058;28;20093;-70
2021/09/09 03:49:27;;;;;;;9.98;6.78;;;;;;;16.37;81.00;99523.84;5075973;28;20047;-70
2021/09/09 03:51:54;;;;;;;9.40;6.88;;;;;;;16.40;81.32;99520.00;5058292;28;20410;-71
2021/09/09 03:54:21;;;;;;;9.05;6.55;;;;;;;16.48;80.69;99521.94;5075970;28;20049;-70
2021/09/09 03:56:48;;;;;;;11.73;6.45;;;;;;;16.52;80.02;99523.34;5075759;28;20467;-71
2021/09/09 03:59:14;;;;;;;8.70;6.45;;;;;;;16.57;80.01;99526.47;5075967;28;20048;-71
2021/09/09 04:01:41;;;;;;;10.20;6.28;;;;;;;16.62;80.27;99529.53;5074626;28;20062;-71
2021/09/09 04:04:08;;;;;;;10.63;5.78;;;;;;;16.58;79.85;99516.50;5074497;28;20044;-71
2021/09/09 04:06:35;;;;;;;11.77;6.05;;;;;;;16.70;80.12;99537.75;5075724;28;20040;-71
2021/09/09 04:09:02;;;;;;;9.82;6.43;;;;;;;16.72;80.10;99536.75;5075724;28;20097;-71
2021/09/09 04:11:29;;;;;;;10.23;6.88;;;;;;;16.74;79.34;99532.03;5074265;28;20053;-71
2021/09/09 04:13:56;;;;;;;9.15;6.47;;;;;;;16.76;79.74;99535.44;5075654;28;20047;-72
2021/09/09 04:16:22;;;;;;;9.55;6.25;;;;;;;16.72;79.53;99528.66;5075203;28;20083;-71
2021/09/09 04:18:49;;;;;;;7.63;6.00;;;;;;;16.75;79.62;99531.03;5075420;28;20340;-71
2021/09/09 04:21:16;;;;;;;10.93;6.38;;;;;;;16.71;80.26;99525.09;5075290;28;20688;-71
2021/09/09 04:23:43;;;;;;;13.13;6.30;;;;;;;16.64;80.45;99519.47;5075361;28;20405;-71
2021/09/09 04:26:09;;;;;;;8.80;6.57;;;;;;;16.69;80.77;99530.63;5054052;28;20049;-71
2021/09/09 04:28:36;;;;;;;9.20;6.45;;;;;;;16.66;81.19;99528.25;5071571;28;20040;-71
2021/09/09 04:31:03;;;;;;;9.13;6.82;;;;;;;16.60;81.31;99515.38;5075110;28;20326;-71
2021/09/09 04:33:30;;;;;;;10.30;6.75;;;;;;;16.67;81.47;99521.03;5074110;28;20388;-71
2021/09/09 04:35:57;;;;;;;12.77;7.07;;;;;;;16.62;82.24;99518.75;5075105;28;20044;-71
2021/09/09 04:38:24;;;;;;;14.10;7.05;;;;;;;16.61;81.89;99522.44;5075254;28;20064;-72
2021/09/09 04:40:50;;;;;;;11.68;6.72;;;;;;;16.59;81.54;99521.75;5074629;28;20102;-72
2021/09/09 04:43:17;;;;;;;10.13;6.63;;;;;;;16.46;81.56;99497.88;5074617;28;20086;-71
2021/09/09 04:45:46;;;;;;;11.00;7.13;;;;;;;16.55;81.86;99518.53;5084591;28;20076;-70
2021/09/09 04:48:13;;;;;;;9.70;6.53;;;;;;;16.60;81.82;99522.63;5067754;28;20040;-70
2021/09/09 04:50:40;;;;;;;10.30;7.25;;;;;;;16.61;81.90;99517.06;5073850;28;20052;-70
2021/09/09 04:53:07;;;;;;;8.70;5.78;;;;;;;16.59;82.37;99513.69;5075550;28;20040;-72
2021/09/09 04:55:34;;;;;;;11.48;6.82;;;;;;;16.57;82.52;99515.69;5074805;28;20055;-71
2021/09/09 04:58:01;;;;;;;9.43;5.70;;;;;;;16.56;83.34;99522.03;5074852;28;20047;-71
2021/09/09 05:00:28;;;;;;;9.75;6.55;;;;;;;16.57;83.44;99523.75;5070447;28;20037;-71
2021/09/09 05:02:55;;;;;;;11.25;7.18;;;;;;;16.57;83.39;99523.75;5063006;28;20062;-71
2021/09/09 05:05:22;;;;;;;9.23;6.47;;;;;;;16.55;82.86;99517.66;5074926;28;20044;-71
2021/09/09 05:07:49;;;;;;;9.60;7.53;;;;;;;16.55;83.10;99513.13;5073575;28;20044;-71
2021/09/09 05:10:16;;;;;;;8.50;6.22;;;;;;;16.56;83.24;99520.22;5056917;28;20041;-70
2021/09/09 05:12:43;;;;;;;10.30;6.72;;;;;;;16.50;84.48;99519.97;5073649;28;20514;-74
2021/09/09 05:15:10;;;;;;;8.82;6.57;;;;;;;16.50;84.42;99519.97;5074573;28;20437;-75
2021/09/09 05:17:37;;;;;;;11.07;6.40;;;;;;;16.51;84.18;99533.28;5073571;28;20390;-70
2021/09/09 05:20:05;;;;;;;10.85;7.53;;;;;;;16.49;84.80;99526.31;5073637;28;20524;-71
2021/09/09 05:22:34;;;;;;;10.80;6.72;;;;;;;16.47;84.81;99529.19;5073438;28;20048;-73
2021/09/09 05:25:01;;;;;;;12.95;7.47;;;;;;;16.47;84.74;99525.63;5073533;28;20045;-73
2021/09/09 05:27:29;;;;;;;12.98;7.18;;;;;;;16.41;85.08;99517.16;5071760;28;20071;-72
2021/09/09 05:29:56;;;;;;;17.23;7.63;;;;;;;16.53;85.54;99530.44;5073180;28;20045;-74
2021/09/09 05:32:23;;;;;;;9.25;6.78;;;;;;;16.51;85.43;99527.88;5074337;28;20048;-72
2021/09/09 05:34:51;;;;;;;10.45;6.90;;;;;;;16.51;85.81;99532.44;5073151;28;20110;-73
2021/09/09 05:37:18;;;;;;;10.60;7.07;;;;;;;16.47;85.56;99520.25;5056883;28;20095;-75
2021/09/09 05:39:45;;;;;;;12.88;6.55;;;;;;;16.53;85.96;99527.75;5074301;28;20044;-71
2021/09/09 05:42:12;;;;;;;11.95;7.70;;;;;;;16.48;85.79;99521.94;5076083;28;20445;-76
2021/09/09 05:44:39;;;;;;;15.50;8.30;;;;;;;16.57;86.00;99526.47;5077658;28;20048;-73
2021/09/09 05:47:08;;;;;;;12.05;7.75;;;;;;;16.63;85.80;99528.56;5067940;28;20112;-73
2021/09/09 05:49:36;;;;;;;11.65;8.48;;;;;;;16.65;85.78;99526.56;5070185;28;20417;-71
2021/09/09 05:52:04;;;;;;;11.43;7.80;;;;;;;16.71;85.94;99533.19;5084011;28;20076;-74
2021/09/09 05:54:32;;;;;;;12.35;7.55;;;;;;;16.81;85.23;99528.63;5080903;28;20044;-74
2021/09/09 05:57:00;;;;;;;10.13;7.40;;;;;;;16.89;85.17;99529.72;5076462;28;20041;-69
2021/09/09 05:59:27;;;;;;;8.43;6.93;;;;;;;16.99;84.70;99524.25;5093705;28;20348;-73
2021/09/09 06:01:54;;;;;;;10.00;7.07;;;;;;;17.02;84.54;99523.97;5076796;28;20048;-74
2021/09/09 06:04:23;;;;;;;12.38;6.90;;;;;;;17.02;83.28;99513.19;5078050;28;20052;-75
2021/09/09 06:06:50;;;;;;;11.88;7.05;;;;;;;17.17;83.77;99533.22;5079943;28;20498;-71
2021/09/09 06:09:17;;;;;;;15.48;8.50;;;;;;;17.16;83.17;99515.38;5097918;28;20131;-72
2021/09/09 06:11:44;;;;;;;14.85;7.47;;;;;;;17.26;83.31;99525.25;5098893;28;20070;-71
2021/09/09 06:14:10;;;;;;;8.52;6.28;;;;;;;17.36;81.12;99531.41;5099706;28;20058;-71
2021/09/09 06:16:38;;;;;;;11.80;6.47;;;;;;;17.43;82.41;99527.09;5109162;28;20086;-71
2021/09/09 06:19:05;;;;;;;13.48;7.07;;;;;;;17.48;82.23;99532.03;5108037;28;20117;-71
2021/09/09 06:21:32;;;;;;;9.02;6.55;;;;;;;17.56;80.76;99532.13;5097613;28;20052;-72
2021/09/09 06:24:00;;;;;;;11.80;8.25;;;;;;;17.49;82.38;99512.16;5097712;28;20048;-71
2021/09/09 06:26:27;;;;;;;10.85;7.30;;;;;;;17.66;81.10;99523.94;5097095;28;20337;-71
2021/09/09 06:28:54;;;;;;;9.13;6.72;;;;;;;17.75;80.64;99522.13;5096221;28;20050;-71
2021/09/09 06:31:21;;;;;;;15.10;6.60;;;;;;;17.81;79.99;99520.69;5097939;28;20051;-71
2021/09/09 06:33:47;;;;;;;16.08;6.63;;;;;;;17.97;79.19;99530.75;5098045;28;20048;-71
2021/09/09 06:36:14;;;;;;;12.90;6.20;;;;;;;18.11;77.45;99522.13;5096707;28;20432;-71
2021/09/09 06:38:41;;;;;;;41.80;8.02;;;;;;;18.31;78.37;99525.44;5097661;28;20062;-68
2021/09/09 06:41:08;;;;;;;45.13;8.27;;;;;;;18.41;77.73;99514.50;5082796;28;20044;-69
2021/09/09 06:43:35;;;;;;;32.65;8.00;;;;;;;18.51;77.78;99529.78;5083105;28;20040;-69
2021/09/09 06:46:01;;;;;;;25.08;8.55;;;;;;;18.66;76.51;99522.75;5077273;28;20097;-68
2021/09/09 06:48:28;;;;;;;23.77;7.88;;;;;;;18.60;76.48;99507.19;5076074;28;20044;-73
2021/09/09 06:50:56;;;;;;;13.93;6.18;;;;;;;18.75;75.31;99520.94;5093805;28;20052;-71
2021/09/09 06:53:23;;;;;;;10.68;6.03;;;;;;;18.79;76.36;99522.28;5078805;28;20086;-71
2021/09/09 06:55:50;;;;;;;13.15;6.28;;;;;;;18.83;76.23;99534.47;5076492;28;20400;-71
2021/09/09 06:58:16;;;;;;;10.73;6.40;;;;;;;18.88;77.14;99525.88;5064794;28;20036;-70
2021/09/09 07:00:46;;;;;;;10.52;6.70;;;;;;;18.86;77.59;99520.59;5059770;28;20390;-71
2021/09/09 07:03:13;;;;;;;12.38;6.78;;;;;;;18.88;77.78;99528.56;5068299;28;20351;-71
2021/09/09 07:05:40;;;;;;;10.35;6.32;;;;;;;18.84;77.92;99522.63;5077224;28;20113;-72
2021/09/09 07:08:07;;;;;;;11.48;6.05;;;;;;;18.93;78.82;99539.75;5077155;28;20044;-71
2021/09/09 07:10:37;;;;;;;9.52;6.00;;;;;;;18.96;78.29;99535.88;5076996;28;20055;-71
2021/09/09 07:13:04;;;;;;;9.60;6.80;;;;;;;19.07;77.95;99538.28;5076958;28;20120;-75
2021/09/09 07:15:30;;;;;;;15.60;6.82;;;;;;;19.14;76.29;99527.66;5076876;28;20087;-71
2021/09/09 07:17:57;;;;;;;11.18;6.18;;;;;;;19.22;76.45;99543.06;5069696;28;20037;-71
2021/09/09 07:20:24;;;;;;;12.95;6.57;;;;;;;19.29;76.90;99549.53;5070757;28;20051;-70
2021/09/09 07:22:51;;;;;;;22.67;7.63;;;;;;;19.37;76.92;99551.38;5039031;28;20380;-67
2021/09/09 07:25:18;;;;;;;124.07;16.40;;;;;;;19.48;76.99;99559.19;5056538;28;20154;-67
2021/09/09 07:27:45;;;;;;;186.73;23.92;;;;;;;19.62;75.94;99546.00;5056668;28;20041;-69
2021/09/09 07:30:12;;;;;;;95.13;14.10;;;;;;;19.84;75.18;99559.88;5038699;28;20385;-69
2021/09/09 07:32:40;;;;;;;24.52;7.70;;;;;;;19.77;75.27;99546.19;5054922;28;20330;-70
2021/09/09 07:35:09;;;;;;;14.32;6.90;;;;;;;19.80;75.33;99559.38;5057224;28;20049;-72
2021/09/09 07:37:37;;;;;;;15.68;6.80;;;;;;;19.85;75.94;99567.84;5075831;28;20445;-71
2021/09/09 07:40:06;;;;;;;10.02;6.93;;;;;;;19.86;76.16;99565.97;5056575;28;20129;-72
2021/09/09 07:42:33;;;;;;;13.50;7.32;;;;;;;19.85;77.09;99570.56;5056450;28;20068;-66
2021/09/09 07:45:00;;;;;;;14.38;6.85;;;;;;;19.90;77.10;99565.50;5072153;28;20156;-70
2021/09/09 07:47:27;;;;;;;9.70;7.05;;;;;;;20.06;77.23;99569.22;5081901;28;20378;-71
2021/09/09 07:49:54;;;;;;;8.77;7.07;;;;;;;19.98;77.35;99559.22;5086393;28;20109;-71
2021/09/09 07:52:20;;;;;;;11.30;6.80;;;;;;;20.04;78.05;99568.56;5077444;28;20055;-71
2021/09/09 07:54:47;;;;;;;15.27;6.75;;;;;;;20.09;77.59;99571.59;5076420;28;20055;-70
2021/09/09 07:57:14;;;;;;;12.30;7.43;;;;;;;20.03;78.08;99573.13;5087855;28;20045;-71
2021/09/09 07:59:41;;;;;;;19.75;7.03;;;;;;;20.11;78.27;99561.44;5091800;28;20048;-70
2021/09/09 08:02:08;;;;;;;15.85;8.02;;;;;;;20.25;77.85;99570.72;5091031;28;20048;-73
2021/09/09 08:04:35;;;;;;;14.43;7.22;;;;;;;20.35;78.08;99586.81;5095140;28;20483;-70
2021/09/09 08:07:02;;;;;;;14.93;7.90;;;;;;;20.34;78.38;99577.84;5095272;28;20044;-75
2021/09/09 08:09:29;;;;;;;26.85;7.95;;;;;;;20.39;78.63;99582.75;5077617;28;20058;-74
2021/09/09 08:11:56;;;;;;;17.95;7.70;;;;;;;20.69;78.89;99588.41;5094821;28;20043;-75
2021/09/09 08:14:23;;;;;;;23.17;7.05;;;;;;;20.77;78.55;99582.97;5075912;28;20048;-74
2021/09/09 08:16:49;;;;;;;13.32;7.50;;;;;;;20.83;78.18;99583.28;5085743;28;20108;-75
2021/09/09 08:19:16;;;;;;;14.32;8.52;;;;;;;20.82;78.38;99590.59;5092573;28;20048;-75
2021/09/09 08:21:43;;;;;;;14.00;7.45;;;;;;;20.93;78.56;99589.41;5089775;28;20075;-74
2021/09/09 08:24:10;;;;;;;14.35;7.63;;;;;;;20.91;79.38;99572.44;5083590;28;20633;-75
2021/09/09 08:26:37;;;;;;;20.77;8.02;;;;;;;21.08;78.77;99580.50;5082815;28;20039;-73
2021/09/09 08:29:04;;;;;;;16.95;7.68;;;;;;;21.19;78.59;99588.22;5082770;28;20033;-76
2021/09/09 08:31:32;;;;;;;17.50;8.70;;;;;;;21.25;78.43;99575.84;5068773;28;20036;-75
2021/09/09 08:34:00;;;;;;;20.50;8.60;;;;;;;21.39;78.42;99585.06;5084780;28;20141;-74
2021/09/09 08:36:27;;;;;;;14.57;8.40;;;;;;;21.38;79.34;99586.97;5074555;28;20136;-74
2021/09/09 08:38:55;;;;;;;13.48;8.20;;;;;;;21.34;80.21;99585.63;5053089;28;20056;-75
2021/09/09 08:41:23;;;;;;;16.48;8.82;;;;;;;21.55;79.58;99595.00;5074912;28;20037;-77
2021/09/09 08:43:50;;;;;;;20.10;8.93;;;;;;;21.65;79.84;99595.63;5081916;28;20311;-76
2021/09/09 08:46:17;;;;;;;55.75;10.90;;;;;;;21.76;79.10;99594.38;5081633;28;20045;-75
2021/09/09 08:48:45;;;;;;;139.20;13.55;;;;;;;21.81;79.33;99591.13;5086465;28;20043;-74
2021/09/09 08:51:14;;;;;;;36.60;9.40;;;;;;;21.77;79.06;99574.34;5095345;28;20052;-74
2021/09/09 08:53:43;;;;;;;24.85;9.85;;;;;;;21.83;79.45;99578.19;5095406;28;20381;-75
2021/09/09 08:56:13;;;;;;;13.18;7.30;;;;;;;21.77;80.17;99576.19;5095323;28;20047;-77
2021/09/09 08:58:40;;;;;;;14.80;7.25;;;;;;;21.96;79.40;99583.03;5095158;28;20039;-78
2021/09/09 09:01:12;;;;;;;18.83;7.97;;;;;;;22.09;79.46;99585.97;5110815;28;20043;-74
2021/09/09 09:03:50;;;;;;;17.25;7.65;;;;;;;22.28;79.23;99599.22;5095139;28;20036;-76
2021/09/09 09:06:30;;;;;;;14.27;7.70;;;;;;;22.37;78.26;99589.94;5094214;28;20111;-75
2021/09/09 09:09:08;;;;;;;21.73;7.90;;;;;;;22.43;78.75;99596.53;5095104;28;20056;-75
2021/09/09 09:11:41;;;;;;;32.33;8.85;;;;;;;22.59;78.04;99601.81;5094401;28;20052;-76
2021/09/09 09:14:17;;;;;;;11.15;7.47;;;;;;;22.67;77.61;99606.34;5095275;28;20048;-75
2021/09/09 09:16:49;;;;;;;20.63;10.85;;;;;;;22.78;76.33;99596.88;5094855;28;20044;-74
2021/09/09 09:19:20;;;;;;;20.08;9.18;;;;;;;22.75;76.48;99586.34;5089611;28;20043;-75
2021/09/09 09:22:10;;;;;;;23.50;11.95;;;;;;;22.86;75.94;99604.06;5083198;28;20103;-76
2021/09/09 09:24:47;;;;;;;12.93;6.88;;;;;;;22.83;75.40;99607.19;5097770;28;20044;-75
2021/09/09 09:27:17;;;;;;;18.90;6.50;;;;;;;22.54;74.65;99592.56;5070613;28;20460;-76
2021/09/09 09:30:04;;;;;;;13.05;6.63;;;;;;;22.49;75.25;99596.63;5083420;28;20058;-76
2021/09/09 09:32:31;;;;;;;23.67;7.15;;;;;;;22.55;74.55;99610.53;5082629;28;20056;-74
2021/09/09 09:35:10;;;;;;;9.48;5.68;;;;;;;22.56;73.67;99623.09;5092615;28;20137;-77
2021/09/09 09:37:57;;;;;;;11.98;5.88;;;;;;;22.47;74.77;99623.16;5080491;28;20094;-73
2021/09/09 09:40:30;;;;;;;12.07;5.70;;;;;;;22.43;75.16;99610.13;5082296;28;20051;-76
2021/09/09 09:42:59;;;;;;;22.58;5.93;;;;;;;22.71;74.25;99626.69;5078904;28;20060;-76
2021/09/09 09:45:28;;;;;;;24.48;6.95;;;;;;;22.75;73.17;99613.56;5085223;28;20049;-77
2021/09/09 09:47:57;;;;;;;12.20;5.28;;;;;;;22.81;72.85;99617.41;5074388;28;20050;-76
2021/09/09 09:50:39;;;;;;;13.20;5.82;;;;;;;22.81;73.44;99618.25;5074171;28;20094;-74
2021/09/09 09:53:15;;;;;;;16.48;5.82;;;;;;;22.85;73.93;99614.13;5074371;28;20128;-76
2021/09/09 09:55:43;;;;;;;27.63;6.90;;;;;;;23.04;72.97;99622.75;5072775;28;20049;-73
2021/09/09 09:58:10;;;;;;;15.25;5.15;;;;;;;23.12;73.38;99613.63;5072056;28;20044;-74
2021/09/09 10:00:38;;;;;;;23.67;6.10;;;;;;;23.13;72.50;99616.16;5073031;28;20048;-76
2021/09/09 10:03:05;;;;;;;50.80;8.65;;;;;;;23.20;71.93;99611.66;5072065;28;20056;-77
2021/09/09 10:05:36;;;;;;;11.02;4.60;;;;;;;23.33;69.98;99618.34;5073095;28;20068;-76
2021/09/09 10:08:05;;;;;;;65.43;10.32;;;;;;;23.40;71.27;99623.84;5061231;28;20124;-76
2021/09/09 10:10:32;;;;;;;10.23;4.50;;;;;;;23.48;71.52;99625.63;5075975;28;20047;-76
2021/09/09 10:12:59;;;;;;;8.35;4.80;;;;;;;23.47;72.52;99605.69;5076871;28;20052;-75
2021/09/09 10:15:33;;;;;;;62.22;8.75;;;;;;;23.65;71.68;99624.34;5074262;28;20045;-76
2021/09/09 10:18:01;;;;;;;30.58;7.38;;;;;;;23.66;71.43;99617.00;5076167;28;20048;-77
2021/09/09 10:20:36;;;;;;;10.93;5.65;;;;;;;23.65;72.56;99621.63;5092133;28;20050;-77
2021/09/09 10:23:04;;;;;;;11.38;4.95;;;;;;;23.54;71.34;99628.41;5094633;28;20452;-77
2021/09/09 10:25:41;;;;;;;82.75;9.63;;;;;;;23.54;71.95;99619.41;5097035;28;20040;-77
2021/09/09 10:28:33;;;;;;;159.85;15.95;;;;;;;23.55;71.45;99624.66;5097162;28;20046;-76
2021/09/09 10:31:10;;;;;;;30.35;6.25;;;;;;;23.65;71.15;99621.63;5096978;28;20484;-75
2021/09/09 10:33:43;;;;;;;35.30;6.57;;;;;;;23.68;71.60;99618.50;5096955;28;20119;-76
2021/09/09 10:36:41;;;;;;;17.63;5.32;;;;;;;23.61;71.03;99623.03;5096954;28;20411;-76
2021/09/09 10:39:13;;;;;;;83.78;11.00;;;;;;;23.61;71.78;99612.16;5098070;28;20051;-77
2021/09/09 10:41:40;;;;;;;13.48;5.13;;;;;;;23.56;72.05;99614.59;5082007;28;20135;-77
2021/09/09 10:44:09;;;;;;;20.98;5.45;;;;;;;23.50;71.21;99599.88;5059864;28;20455;-75
2021/09/09 10:46:41;;;;;;;15.10;5.05;;;;;;;23.59;71.82;99611.50;5082035;28;20123;-76
2021/09/09 10:49:20;;;;;;;10.85;3.83;;;;;;;23.65;71.41;99624.34;5095127;28;20040;-75
2021/09/09 10:52:11;;;;;;;12.23;3.85;;;;;;;23.65;67.86;99634.41;5092667;28;20630;-75
2021/09/09 10:55:03;;;;;;;13.40;3.97;;;;;;;23.63;68.70;99626.41;5076205;28;20112;-75
2021/09/09 10:57:31;;;;;;;9.85;4.22;;;;;;;23.58;69.90;99624.28;5076141;28;20094;-75
2021/09/09 10:59:58;;;;;;;9.70;3.90;;;;;;;23.56;69.59;99625.50;5076220;28;20044;-75
2021/09/09 11:02:25;;;;;;;9.88;3.97;;;;;;;23.59;68.85;99625.13;5076369;28;20044;-75
2021/09/09 11:05:00;;;;;;;8.95;4.50;;;;;;;23.58;68.93;99623.41;5087057;28;20055;-75
2021/09/09 11:07:31;;;;;;;7.07;3.70;;;;;;;23.69;68.94;99630.25;5086011;28;20098;-75
2021/09/09 11:10:07;;;;;;;16.60;4.13;;;;;;;23.74;68.88;99625.91;5077197;28;20041;-74
2021/09/09 11:12:40;;;;;;;8.27;4.07;;;;;;;23.78;69.74;99623.63;5078251;28;20044;-75
2021/09/09 11:15:13;;;;;;;19.00;4.15;;;;;;;23.82;67.90;99632.28;5076113;28;20048;-74
2021/09/09 11:17:40;;;;;;;33.33;4.40;;;;;;;23.96;67.30;99611.47;5087094;28;20356;-76
2021/09/09 11:20:10;;;;;;;5.30;3.22;;;;;;;24.29;67.07;99619.09;5085925;28;20062;-74
2021/09/09 11:22:38;;;;;;;9.67;3.80;;;;;;;24.45;64.90;99600.75;5091154;28;20352;-74
2021/09/09 11:25:18;;;;;;;10.65;4.07;;;;;;;24.63;64.05;99605.72;5092953;28;20277;-73
2021/09/09 11:27:44;;;;;;;11.23;3.80;;;;;;;24.77;65.29;99615.66;5088992;28;20036;-74
2021/09/09 11:30:16;;;;;;;18.42;4.43;;;;;;;24.93;64.49;99619.13;5085798;28;20264;-74
2021/09/09 11:33:02;;;;;;;16.38;3.92;;;;;;;25.16;64.08;99615.28;5082231;28;20041;-73